createdAt,value
2022-11-16T00:01:09.511Z,100395.59
2022-11-16T00:03:36.155Z,100388.53
2022-11-16T00:06:07.724Z,100389.78
2022-11-16T00:08:37.002Z,100384.75
2022-11-16T00:11:08.372Z,100382.72
2022-11-16T00:13:36.013Z,100376.59
2022-11-16T00:16:03.418Z,100370.28
2022-11-16T00:18:30.221Z,100363.25
2022-11-16T00:20:57.359Z,100361.38
2022-11-16T00:23:23.828Z,100357.78
2022-11-16T00:25:50.515Z,100355.25
2022-11-16T00:28:17.442Z,100350.75
2022-11-16T00:30:43.921Z,100364.59
2022-11-16T00:33:15.376Z,100349.09
2022-11-16T00:35:41.936Z,100345.38
2022-11-16T00:38:08.444Z,100344.75
2022-11-16T00:40:34.960Z,100343.00
2022-11-16T00:43:01.459Z,100340.13
2022-11-16T00:45:27.943Z,100339.31
2022-11-16T00:48:00.169Z,100340.50
2022-11-16T00:50:27.305Z,100337.88
2022-11-16T00:52:54.432Z,100343.63
2022-11-16T00:55:20.920Z,100335.16
2022-11-16T00:57:47.426Z,100334.19
2022-11-16T01:00:14.620Z,100337.69
2022-11-16T01:02:41.417Z,100330.75
2022-11-16T01:05:09.653Z,100333.41
2022-11-16T01:07:37.721Z,100342.13
2022-11-16T01:10:07.076Z,100344.13
2022-11-16T01:12:33.641Z,100343.03
2022-11-16T01:15:00.106Z,100329.28
2022-11-16T01:17:26.569Z,100340.84
2022-11-16T01:19:53.616Z,100326.63
2022-11-16T01:22:20.177Z,100323.22
2022-11-16T01:24:46.934Z,100321.38
2022-11-16T01:27:13.886Z,100318.75
2022-11-16T01:29:40.365Z,100321.34
2022-11-16T01:32:06.828Z,100316.28
2022-11-16T01:34:33.301Z,100314.31
2022-11-16T01:36:59.752Z,100322.41
2022-11-16T01:39:26.219Z,100312.50
2022-11-16T01:41:52.686Z,100311.63
2022-11-16T01:44:31.435Z,100315.00
2022-11-16T01:47:03.493Z,100323.59
2022-11-16T01:49:33.308Z,100316.75
2022-11-16T01:52:03.648Z,100301.59
2022-11-16T01:54:31.222Z,100302.41
2022-11-16T01:57:00.996Z,100303.91
2022-11-16T01:59:28.508Z,100298.69
2022-11-16T02:01:55.467Z,100298.75
2022-11-16T02:04:21.956Z,100291.84
2022-11-16T02:07:16.192Z,100288.81
2022-11-16T02:10:04.182Z,100284.22
2022-11-16T02:12:52.320Z,100282.56
2022-11-16T02:15:18.835Z,100282.88
2022-11-16T02:18:03.975Z,100282.22
2022-11-16T02:20:44.548Z,100276.31
2022-11-16T02:23:26.011Z,100278.13
2022-11-16T02:26:27.121Z,100283.03
2022-11-16T02:29:05.500Z,100275.75
2022-11-16T02:31:38.104Z,100281.47
2022-11-16T02:34:06.141Z,100268.34
2022-11-16T02:36:34.081Z,100264.66
2022-11-16T02:39:04.495Z,100261.22
2022-11-16T02:41:34.030Z,100261.16
2022-11-16T02:44:04.408Z,100257.78
2022-11-16T02:46:34.303Z,100256.13
2022-11-16T02:49:02.844Z,100247.75
2022-11-16T02:51:29.846Z,100246.44
2022-11-16T02:54:03.188Z,100241.47
2022-11-16T02:56:30.250Z,100245.75
2022-11-16T02:58:58.338Z,100240.66
2022-11-16T03:01:32.878Z,100236.53
2022-11-16T03:04:14.109Z,100236.19
2022-11-16T03:06:41.772Z,100237.16
2022-11-16T03:09:16.531Z,100238.94
2022-11-16T03:12:00.941Z,100234.47
2022-11-16T03:14:34.062Z,100232.75
2022-11-16T03:17:01.641Z,100237.97
2022-11-16T03:19:41.866Z,100239.72
2022-11-16T03:22:20.808Z,100244.75
2022-11-16T03:24:47.573Z,100234.63
2022-11-16T03:27:34.661Z,100236.31
2022-11-16T03:30:05.701Z,100236.47
2022-11-16T03:32:54.413Z,100238.22
2022-11-16T03:35:29.732Z,100225.97
2022-11-16T03:37:57.969Z,100228.88
2022-11-16T03:40:25.724Z,100232.31
2022-11-16T03:42:52.453Z,100236.88
2022-11-16T03:45:19.524Z,100234.50
2022-11-16T03:47:46.311Z,100225.31
2022-11-16T03:50:12.947Z,100228.72
2022-11-16T03:52:39.441Z,100225.75
2022-11-16T03:55:06.112Z,100226.63
2022-11-16T03:57:32.574Z,100218.09
2022-11-16T03:59:59.066Z,100225.03
2022-11-16T04:02:25.530Z,100226.94
2022-11-16T04:05:10.901Z,100226.47
2022-11-16T04:07:56.041Z,100226.69
2022-11-16T04:10:41.267Z,100222.38
2022-11-16T04:13:29.161Z,100227.28
2022-11-16T04:16:14.251Z,100238.25
2022-11-16T04:18:59.584Z,100236.91
2022-11-16T04:21:47.818Z,100236.59
2022-11-16T04:24:20.710Z,100248.44
2022-11-16T04:27:09.844Z,100242.75
2022-11-16T04:29:36.419Z,100242.03
2022-11-16T04:32:21.469Z,100242.22
2022-11-16T04:35:06.809Z,100247.31
2022-11-16T04:37:51.874Z,100241.03
2022-11-16T04:40:23.350Z,100251.41
2022-11-16T04:42:54.448Z,100239.94
2022-11-16T04:45:40.100Z,100227.00
2022-11-16T04:48:07.059Z,100234.22
2022-11-16T04:50:33.954Z,100241.88
2022-11-16T04:53:00.834Z,100234.28
2022-11-16T04:55:27.312Z,100232.53
2022-11-16T04:57:53.812Z,100238.38
2022-11-16T05:00:20.669Z,100229.66
2022-11-16T05:02:47.414Z,100228.03
2022-11-16T05:05:14.094Z,100227.25
2022-11-16T05:07:40.659Z,100229.50
2022-11-16T05:10:07.615Z,100241.78
2022-11-16T05:12:34.790Z,100241.03
2022-11-16T05:15:01.531Z,100244.16
2022-11-16T05:17:28.506Z,100246.19
2022-11-16T05:20:13.632Z,100252.28
2022-11-16T05:22:40.159Z,100242.06
2022-11-16T05:25:08.198Z,100235.78
2022-11-16T05:27:34.989Z,100239.41
2022-11-16T05:30:01.627Z,100252.78
2022-11-16T05:32:28.286Z,100252.78
2022-11-16T05:34:54.769Z,100243.47
2022-11-16T05:37:21.283Z,100239.78
2022-11-16T05:39:48.167Z,100239.81
2022-11-16T05:42:14.601Z,100239.50
2022-11-16T05:44:41.064Z,100236.38
2022-11-16T05:47:07.492Z,100239.38
2022-11-16T05:49:33.958Z,100242.81
2022-11-16T05:52:00.435Z,100237.34
2022-11-16T05:54:26.966Z,100230.66
2022-11-16T05:56:54.273Z,100226.69
2022-11-16T05:59:21.951Z,100235.16
2022-11-16T06:01:48.960Z,100237.19
2022-11-16T06:04:15.702Z,100227.84
2022-11-16T06:06:43.437Z,100240.69
2022-11-16T06:09:12.032Z,100241.75
2022-11-16T06:11:38.848Z,100239.81
2022-11-16T06:14:05.862Z,100237.28
2022-11-16T06:16:32.391Z,100244.59
2022-11-16T06:18:59.591Z,100246.56
2022-11-16T06:21:26.187Z,100243.13
2022-11-16T06:23:52.600Z,100245.78
2022-11-16T06:26:19.052Z,100252.53
2022-11-16T06:28:45.508Z,100250.09
2022-11-16T06:31:11.966Z,100246.81
2022-11-16T06:33:38.403Z,100252.72
2022-11-16T06:36:05.264Z,100260.66
2022-11-16T06:38:31.863Z,100264.28
2022-11-16T06:40:59.234Z,100258.56
2022-11-16T06:43:26.578Z,100254.78
2022-11-16T06:45:55.582Z,100267.28
2022-11-16T06:48:22.359Z,100257.00
2022-11-16T06:50:49.965Z,100254.38
2022-11-16T06:53:16.847Z,100253.88
2022-11-16T06:58:10.118Z,100253.00
2022-11-16T07:00:36.668Z,100244.91
2022-11-16T07:03:03.927Z,100250.56
2022-11-16T07:05:31.504Z,100255.38
2022-11-16T07:07:58.091Z,100246.31
2022-11-16T07:10:25.178Z,100249.78
2022-11-16T07:12:51.638Z,100253.19
2022-11-16T07:15:18.276Z,100242.59
2022-11-16T07:17:44.781Z,100244.09
2022-11-16T07:20:12.153Z,100245.94
2022-11-16T07:22:38.719Z,100256.16
2022-11-16T07:25:05.587Z,100250.19
2022-11-16T07:27:32.030Z,100256.75
2022-11-16T07:29:58.476Z,100255.75
2022-11-16T07:32:24.966Z,100254.03
2022-11-16T07:34:51.456Z,100256.84
2022-11-16T07:37:17.904Z,100261.47
2022-11-16T07:39:45.605Z,100259.31
2022-11-16T07:42:12.366Z,100252.41
2022-11-16T07:44:39.264Z,100260.59
2022-11-16T07:47:06.136Z,100255.41
2022-11-16T07:49:32.586Z,100258.75
2022-11-16T07:51:59.119Z,100254.97
2022-11-16T07:54:25.581Z,100253.63
2022-11-16T07:56:54.883Z,100252.50
2022-11-16T07:59:21.321Z,100249.09
2022-11-16T08:01:48.362Z,100259.47
2022-11-16T08:04:17.423Z,100262.91
2022-11-16T08:06:44.679Z,100250.03
2022-11-16T08:09:11.186Z,100261.16
2022-11-16T08:11:38.090Z,100253.94
2022-11-16T08:14:04.723Z,100260.91
2022-11-16T08:16:33.359Z,100259.25
2022-11-16T08:19:03.455Z,100262.72
2022-11-16T08:21:29.934Z,100254.38
2022-11-16T08:23:58.701Z,100258.19
2022-11-16T08:26:25.705Z,100260.94
2022-11-16T08:28:53.871Z,100253.28
2022-11-16T08:31:27.854Z,100242.50
2022-11-16T08:33:54.656Z,100253.69
2022-11-16T08:36:21.500Z,100245.38
2022-11-16T08:38:49.593Z,100244.75
2022-11-16T08:41:17.323Z,100248.00
2022-11-16T08:43:46.499Z,100256.38
2022-11-16T08:46:13.654Z,100249.25
2022-11-16T08:48:40.188Z,100253.19
2022-11-16T08:51:19.992Z,100248.75
2022-11-16T08:53:48.453Z,100250.28
2022-11-16T08:56:16.332Z,100254.28
2022-11-16T08:58:47.385Z,100260.47
2022-11-16T09:01:16.929Z,100256.47
2022-11-16T09:03:44.160Z,100265.28
2022-11-16T09:06:11.420Z,100268.59
2022-11-16T09:08:39.397Z,100263.66
2022-11-16T09:11:07.197Z,100276.03
2022-11-16T09:13:33.828Z,100275.38
2022-11-16T09:16:01.653Z,100281.44
2022-11-16T09:18:28.775Z,100278.97
2022-11-16T09:20:55.641Z,100280.97
2022-11-16T09:23:25.487Z,100276.06
2022-11-16T09:25:52.922Z,100280.50
2022-11-16T09:28:20.011Z,100273.56
2022-11-16T09:30:49.198Z,100279.25
2022-11-16T09:33:15.806Z,100280.84
2022-11-16T09:35:42.387Z,100280.19
2022-11-16T09:38:15.976Z,100283.56
2022-11-16T09:40:47.005Z,100283.81
2022-11-16T09:43:58.614Z,100290.03
2022-11-16T09:46:39.531Z,100283.91
2022-11-16T09:49:17.165Z,100294.56
2022-11-16T09:51:47.385Z,100287.41
2022-11-16T09:54:24.994Z,100293.34
2022-11-16T09:56:54.459Z,100285.34
2022-11-16T09:59:26.343Z,100297.28
2022-11-16T10:01:57.184Z,100288.94
2022-11-16T10:04:37.098Z,100296.81
2022-11-16T10:07:18.203Z,100305.06
2022-11-16T10:09:45.237Z,100302.91
2022-11-16T10:12:20.789Z,100305.72
2022-11-16T10:15:07.159Z,100310.19
2022-11-16T10:17:43.593Z,100303.03
2022-11-16T10:20:31.518Z,100300.16
2022-11-16T10:22:58.381Z,100312.53
2022-11-16T10:25:58.847Z,100302.72
2022-11-16T10:28:28.462Z,100304.88
2022-11-16T10:31:02.132Z,100308.97
2022-11-16T10:33:35.586Z,100298.50
2022-11-16T10:36:21.517Z,100300.22
2022-11-16T10:38:48.302Z,100303.00
2022-11-16T10:41:25.402Z,100314.69
2022-11-16T10:43:51.985Z,100304.28
2022-11-16T10:49:04.239Z,100307.88
2022-11-16T10:51:30.684Z,100307.84
2022-11-16T10:53:57.262Z,100310.97
2022-11-16T10:56:40.449Z,100304.88
2022-11-16T10:59:28.238Z,100297.47
2022-11-16T11:01:54.673Z,100296.66
2022-11-16T11:04:28.148Z,100294.97
2022-11-16T11:06:56.650Z,100304.38
2022-11-16T11:09:34.571Z,100292.81
2022-11-16T11:12:34.480Z,100310.50
2022-11-16T11:15:27.079Z,100301.88
2022-11-16T11:18:15.605Z,100307.84
2022-11-16T11:20:45.310Z,100305.94
2022-11-16T11:23:15.480Z,100308.75
2022-11-16T11:25:50.061Z,100297.72
2022-11-16T11:28:19.445Z,100308.75
2022-11-16T11:31:17.239Z,100301.88
2022-11-16T11:33:49.980Z,100297.50
2022-11-16T11:36:20.826Z,100304.75
2022-11-16T11:39:04.250Z,100292.84
2022-11-16T11:41:37.003Z,100298.44
2022-11-16T11:44:23.732Z,100303.69
2022-11-16T11:47:42.325Z,100294.13
2022-11-16T11:49:50.061Z,100295.16
2022-11-16T11:52:39.242Z,100299.22
2022-11-16T11:55:07.452Z,100294.53
2022-11-16T11:57:38.550Z,100298.28
2022-11-16T12:00:06.612Z,100302.75
2022-11-16T12:03:01.005Z,100289.03
2022-11-16T12:05:45.975Z,100287.38
2022-11-16T12:08:24.754Z,100291.19
2022-11-16T12:10:53.795Z,100296.28
2022-11-16T12:13:26.380Z,100301.56
2022-11-16T12:16:01.880Z,100296.91
2022-11-16T12:18:56.240Z,100302.28
2022-11-16T12:21:35.565Z,100302.94
2022-11-16T12:24:43.397Z,100294.16
2022-11-16T12:27:18.279Z,100301.25
2022-11-16T12:30:23.631Z,100303.09
2022-11-16T12:33:00.671Z,100296.94
2022-11-16T12:35:44.777Z,100303.91
2022-11-16T12:38:20.520Z,100299.34
2022-11-16T12:41:16.865Z,100302.22
2022-11-16T12:44:12.937Z,100300.84
2022-11-16T12:46:54.557Z,100299.19
2022-11-16T12:49:33.214Z,100296.84
2022-11-16T12:52:37.236Z,100299.69
2022-11-16T12:55:26.811Z,100304.44
2022-11-16T12:58:03.019Z,100307.75
2022-11-16T13:00:39.860Z,100306.97
2022-11-16T13:03:12.455Z,100298.19
2022-11-16T13:05:41.891Z,100307.09
2022-11-16T13:08:19.522Z,100305.09
2022-11-16T13:10:48.712Z,100306.28
2022-11-16T13:13:35.926Z,100302.06
2022-11-16T13:16:10.127Z,100304.66
2022-11-16T13:18:40.565Z,100310.75
2022-11-16T13:21:22.138Z,100305.38
2022-11-16T13:24:08.514Z,100299.28
2022-11-16T13:26:50.960Z,100307.75
2022-11-16T13:29:34.547Z,100299.06
2022-11-16T13:32:16.795Z,100294.81
2022-11-16T13:34:43.518Z,100295.22
2022-11-16T13:37:38.126Z,100280.44
2022-11-16T13:40:04.883Z,100283.00
2022-11-16T13:42:33.508Z,100275.91
2022-11-16T13:45:09.087Z,100285.44
2022-11-16T13:47:36.817Z,100279.56
2022-11-16T13:50:06.274Z,100280.16
2022-11-16T13:53:36.347Z,100280.28
2022-11-16T13:55:36.042Z,100286.97
2022-11-16T13:58:04.615Z,100280.41
2022-11-16T14:00:33.847Z,100274.84
2022-11-16T14:03:15.559Z,100277.44
2022-11-16T14:05:52.446Z,100269.13
2022-11-16T14:08:18.828Z,100274.78
2022-11-16T14:10:45.249Z,100268.53
2022-11-16T14:13:30.111Z,100270.66
2022-11-16T14:16:14.905Z,100265.19
2022-11-16T14:18:42.659Z,100273.75
2022-11-16T14:21:17.145Z,100276.75
2022-11-16T14:24:02.273Z,100276.38
2022-11-16T14:26:47.086Z,100285.22
2022-11-16T14:29:28.538Z,100284.75
2022-11-16T14:31:59.248Z,100282.75
2022-11-16T14:34:46.718Z,100289.41
2022-11-16T14:37:30.221Z,100289.75
2022-11-16T14:40:09.037Z,100289.38
2022-11-16T14:43:15.287Z,100296.50
2022-11-16T14:45:47.533Z,100292.72
2022-11-16T14:48:17.250Z,100289.75
2022-11-16T14:51:05.718Z,100290.94
2022-11-16T14:53:33.845Z,100274.16
2022-11-16T14:56:12.288Z,100288.59
2022-11-16T14:58:39.252Z,100281.59
2022-11-16T15:01:14.526Z,100288.50
2022-11-16T15:03:55.416Z,100289.25
2022-11-16T15:06:22.303Z,100285.34
2022-11-16T15:08:51.540Z,100279.22
2022-11-16T15:11:59.818Z,100276.50
2022-11-16T15:14:29.666Z,100278.66
2022-11-16T15:16:57.342Z,100271.56
2022-11-16T15:19:24.384Z,100278.03
2022-11-16T15:21:57.135Z,100263.84
2022-11-16T15:24:32.220Z,100259.63
2022-11-16T15:27:09.238Z,100267.44
2022-11-16T15:29:36.084Z,100265.34
2022-11-16T15:32:02.698Z,100273.91
2022-11-16T15:34:29.176Z,100273.63
2022-11-16T15:36:55.603Z,100268.28
2022-11-16T15:39:24.558Z,100267.13
2022-11-16T15:41:51.426Z,100270.69
2022-11-16T15:44:20.359Z,100268.09
2022-11-16T15:46:52.232Z,100272.28
2022-11-16T15:49:29.297Z,100273.31
2022-11-16T15:51:59.775Z,100269.56
2022-11-16T15:54:51.670Z,100281.94
2022-11-16T15:57:19.961Z,100278.75
2022-11-16T15:59:49.515Z,100278.59
2022-11-16T16:02:18.971Z,100278.56
2022-11-16T16:04:45.448Z,100274.59
2022-11-16T16:07:13.459Z,100275.84
2022-11-16T16:09:40.660Z,100267.38
2022-11-16T16:12:21.933Z,100279.34
2022-11-16T16:14:49.476Z,100278.34
2022-11-16T16:17:26.696Z,100291.34
2022-11-16T16:20:19.842Z,100281.19
2022-11-16T16:22:46.391Z,100283.00
2022-11-16T16:25:34.014Z,100281.53
2022-11-16T16:28:00.504Z,100273.84
2022-11-16T16:30:28.825Z,100282.25
2022-11-16T16:32:55.318Z,100276.78
2022-11-16T16:35:23.965Z,100281.50
2022-11-16T16:37:52.226Z,100284.19
2022-11-16T16:40:18.937Z,100281.50
2022-11-16T16:42:48.757Z,100277.03
2022-11-16T16:45:19.652Z,100284.06
2022-11-16T16:47:46.357Z,100288.19
2022-11-16T16:50:12.912Z,100279.72
2022-11-16T16:52:39.843Z,100294.31
2022-11-16T16:55:06.636Z,100293.53
2022-11-16T16:57:33.106Z,100289.97
2022-11-16T16:59:59.673Z,100289.09
2022-11-16T17:02:26.808Z,100293.41
2022-11-16T17:04:53.325Z,100295.44
2022-11-16T17:07:22.422Z,100292.84
2022-11-16T17:09:49.041Z,100287.81
2022-11-16T17:12:15.544Z,100284.13
2022-11-16T17:14:42.139Z,100291.88
2022-11-16T17:17:08.763Z,100290.94
2022-11-16T17:19:35.309Z,100284.88
2022-11-16T17:22:01.747Z,100278.50
2022-11-16T17:24:28.244Z,100292.03
2022-11-16T17:26:54.654Z,100295.50
2022-11-16T17:29:21.093Z,100286.41
2022-11-16T17:31:47.765Z,100279.78
2022-11-16T17:34:14.599Z,100285.84
2022-11-16T17:36:41.945Z,100286.41
2022-11-16T17:39:08.532Z,100303.09
2022-11-16T17:41:34.979Z,100299.13
2022-11-16T17:44:01.443Z,100295.31
2022-11-16T17:46:29.057Z,100311.34
2022-11-16T17:48:56.010Z,100309.34
2022-11-16T17:51:29.925Z,100313.44
2022-11-16T17:53:56.397Z,100316.34
2022-11-16T17:56:27.852Z,100317.59
2022-11-16T17:58:55.352Z,100315.22
2022-11-16T18:01:22.720Z,100319.47
2022-11-16T18:03:49.246Z,100315.41
2022-11-16T18:06:18.411Z,100308.81
2022-11-16T18:08:45.246Z,100322.41
2022-11-16T18:11:17.087Z,100321.28
2022-11-16T18:13:44.703Z,100326.66
2022-11-16T18:16:13.154Z,100325.88
2022-11-16T18:18:40.743Z,100324.41
2022-11-16T18:21:08.187Z,100338.13
2022-11-16T18:23:35.512Z,100328.00
2022-11-16T18:26:06.048Z,100322.91
2022-11-16T18:28:32.483Z,100334.72
2022-11-16T18:31:04.012Z,100329.72
2022-11-16T18:33:30.712Z,100324.34
2022-11-16T18:35:57.552Z,100340.28
2022-11-16T18:38:24.009Z,100333.56
2022-11-16T18:41:12.495Z,100336.09
2022-11-16T18:43:39.728Z,100328.44
2022-11-16T18:46:06.977Z,100332.00
2022-11-16T18:48:33.483Z,100325.50
2022-11-16T18:51:00.787Z,100317.00
2022-11-16T18:53:27.838Z,100314.16
2022-11-16T18:55:57.850Z,100321.75
2022-11-16T18:58:49.302Z,100317.47
2022-11-16T19:01:14.179Z,100317.69
2022-11-16T19:03:40.938Z,100310.63
2022-11-16T19:06:09.046Z,100301.91
2022-11-16T19:08:40.439Z,100302.03
2022-11-16T19:11:16.904Z,100319.88
2022-11-16T19:13:44.248Z,100308.38
2022-11-16T19:16:12.648Z,100313.75
2022-11-16T19:19:02.200Z,100305.84
2022-11-16T19:21:28.713Z,100305.63
2022-11-16T19:23:56.158Z,100300.53
2022-11-16T19:26:24.800Z,100311.00
2022-11-16T19:28:52.218Z,100306.53
2022-11-16T19:31:23.389Z,100306.13
2022-11-16T19:34:00.732Z,100315.09
2022-11-16T19:36:28.729Z,100310.59
2022-11-16T19:38:55.641Z,100314.59
2022-11-16T19:41:22.861Z,100315.03
2022-11-16T19:43:52.507Z,100311.72
2022-11-16T19:46:22.030Z,100309.94
2022-11-16T19:48:49.585Z,100305.75
2022-11-16T19:51:27.118Z,100306.03
2022-11-16T19:53:53.940Z,100312.81
2022-11-16T19:56:22.146Z,100310.50
2022-11-16T19:58:48.936Z,100312.72
2022-11-16T20:01:17.875Z,100304.72
2022-11-16T20:03:45.593Z,100309.94
2022-11-16T20:06:13.120Z,100316.38
2022-11-16T20:08:41.032Z,100309.97
2022-11-16T20:11:12.238Z,100308.66
2022-11-16T20:13:38.862Z,100306.97
2022-11-16T20:16:07.129Z,100294.69
2022-11-16T20:18:33.616Z,100293.50
2022-11-16T20:21:05.235Z,100298.78
2022-11-16T20:23:35.889Z,100293.13
2022-11-16T20:26:10.578Z,100288.91
2022-11-16T20:28:38.291Z,100288.38
2022-11-16T20:31:09.730Z,100286.53
2022-11-16T20:33:36.744Z,100268.75
2022-11-16T20:36:05.925Z,100283.34
2022-11-16T20:38:34.315Z,100276.50
2022-11-16T20:41:17.742Z,100277.22
2022-11-16T20:43:45.863Z,100278.13
2022-11-16T20:46:17.490Z,100280.41
2022-11-16T20:48:45.084Z,100284.16
2022-11-16T20:51:14.283Z,100288.38
2022-11-16T20:53:42.999Z,100278.19
2022-11-16T20:56:11.157Z,100277.19
2022-11-16T20:58:40.095Z,100266.75
2022-11-16T21:01:13.405Z,100279.72
2022-11-16T21:03:40.655Z,100272.47
2022-11-16T21:06:10.489Z,100274.06
2022-11-16T21:08:38.070Z,100274.34
2022-11-16T21:11:19.753Z,100258.88
2022-11-16T21:14:05.472Z,100263.06
2022-11-16T21:16:32.726Z,100253.56
2022-11-16T21:19:00.503Z,100252.69
2022-11-16T21:21:27.140Z,100250.19
2022-11-16T21:23:54.900Z,100245.97
2022-11-16T21:26:26.672Z,100251.13
2022-11-16T21:28:53.695Z,100254.28
2022-11-16T21:31:25.395Z,100260.16
2022-11-16T21:33:52.415Z,100260.19
2022-11-16T21:36:20.762Z,100259.56
2022-11-16T21:38:47.728Z,100256.88
2022-11-16T21:41:15.660Z,100261.34
2022-11-16T21:43:42.134Z,100259.25
2022-11-16T21:46:13.321Z,100254.78
2022-11-16T21:48:40.130Z,100249.19
2022-11-16T21:51:08.977Z,100251.44
2022-11-16T21:53:36.193Z,100247.66
2022-11-16T21:56:03.096Z,100244.81
2022-11-16T21:58:29.631Z,100255.06
2022-11-16T22:00:57.404Z,100242.66
2022-11-16T22:03:25.621Z,100236.81
2022-11-16T22:06:19.805Z,100234.16
2022-11-16T22:08:47.117Z,100232.41
2022-11-16T22:11:14.554Z,100241.81
2022-11-16T22:13:41.274Z,100237.16
2022-11-16T22:16:11.969Z,100217.88
2022-11-16T22:18:38.849Z,100212.00
2022-11-16T22:21:10.839Z,100225.84
2022-11-16T22:23:38.014Z,100224.84
2022-11-16T22:26:20.197Z,100227.41
2022-11-16T22:28:46.633Z,100224.25
2022-11-16T22:31:14.734Z,100230.25
2022-11-16T22:33:41.666Z,100226.47
2022-11-16T22:36:09.997Z,100230.53
2022-11-16T22:38:36.711Z,100221.94
2022-11-16T22:41:03.289Z,100226.63
2022-11-16T22:43:30.514Z,100231.09
2022-11-16T22:46:01.706Z,100224.25
2022-11-16T22:51:05.272Z,100225.31
2022-11-16T22:53:31.919Z,100231.00
2022-11-16T22:56:06.836Z,100238.91
2022-11-16T22:58:33.725Z,100235.88
2022-11-16T23:01:00.174Z,100231.19
2022-11-16T23:03:26.649Z,100225.41
2022-11-16T23:05:53.153Z,100236.22
2022-11-16T23:08:24.722Z,100225.84
2022-11-16T23:11:17.053Z,100238.00
2022-11-16T23:14:02.338Z,100236.97
2022-11-16T23:16:28.936Z,100229.28
2022-11-16T23:18:55.887Z,100220.41
2022-11-16T23:21:41.490Z,100223.34
2022-11-16T23:24:31.205Z,100211.91
2022-11-16T23:27:17.280Z,100216.06
2022-11-16T23:29:43.756Z,100211.66
2022-11-16T23:32:10.447Z,100197.66
2022-11-16T23:34:36.871Z,100205.78
2022-11-16T23:37:05.430Z,100205.91
2022-11-16T23:39:31.898Z,100206.31
2022-11-16T23:42:16.954Z,100202.88
2022-11-16T23:44:43.428Z,100193.38
2022-11-16T23:47:10.059Z,100188.69
2022-11-16T23:49:36.497Z,100191.28
2022-11-16T23:52:02.968Z,100197.28
2022-11-16T23:54:29.416Z,100190.63
2022-11-16T23:56:55.908Z,100196.00
2022-11-16T23:59:22.371Z,100195.84
